Ben Arnold, Texas
Current Conditions -  °F | °C
As of 2:15 AM on Monday 24 Nov 2014 (Local Time) from KT35 Reporting Station
Clear Clear  
Wind Chill: 45°   Ceiling: Unl
Heat Index: 49°   Visibility: 10mi
Dew Point: 40°   Wind: 8mph
Humidity: 73%   Direction: 320°NW
Pressure: 29.91"   Gusts: NA
Location:  30.9882°N, 97.103°W
Report Text: KT35 240815Z AUTO 32007KT 10SM CLR 09/05 A2991 RMK AO2 T00920045
Loading
Personal Weather Stations






























Interactive Weather Map New forecast layout! Learn more

10-Day Weather Forecast

Advertisements
Track Severe Weather on mobile